createdAt,value
2022-10-26T00:02:52.814Z,7.39
2022-10-26T00:05:56.608Z,7.41
2022-10-26T00:09:00.332Z,7.40
2022-10-26T00:12:04.526Z,7.38
2022-10-26T00:15:18.607Z,7.33
2022-10-26T00:18:23.908Z,7.20
2022-10-26T00:21:27.543Z,7.12
2022-10-26T00:24:31.254Z,7.08
2022-10-26T00:27:35.494Z,6.99
2022-10-26T00:30:41.474Z,7.11
2022-10-26T00:33:46.597Z,7.08
2022-10-26T00:36:50.153Z,7.10
2022-10-26T00:39:53.683Z,7.08
2022-10-26T00:42:57.871Z,7.07
2022-10-26T00:46:04.270Z,7.11
2022-10-26T00:49:16.815Z,7.10
2022-10-26T00:52:22.746Z,7.18
2022-10-26T00:55:33.682Z,7.18
2022-10-26T00:58:38.758Z,7.11
2022-10-26T01:01:47.769Z,7.10
2022-10-26T01:04:55.713Z,7.09
2022-10-26T01:08:00.193Z,7.10
2022-10-26T01:11:04.976Z,7.17
2022-10-26T01:14:13.639Z,7.09
2022-10-26T01:17:40.731Z,7.18
2022-10-26T01:21:37.269Z,7.25
2022-10-26T01:24:58.428Z,7.21
2022-10-26T01:28:09.434Z,7.10
2022-10-26T01:31:25.678Z,7.09
2022-10-26T01:34:38.802Z,7.09
2022-10-26T01:37:50.868Z,7.22
2022-10-26T01:41:06.204Z,7.12
2022-10-26T01:44:19.890Z,7.18
2022-10-26T01:47:27.400Z,7.21
2022-10-26T01:50:33.370Z,7.28
2022-10-26T01:53:37.596Z,7.30
2022-10-26T01:56:43.804Z,7.20
2022-10-26T02:00:05.823Z,7.19
2022-10-26T02:03:21.906Z,7.16
2022-10-26T02:06:40.353Z,7.21
2022-10-26T02:10:01.024Z,7.18
2022-10-26T02:13:16.308Z,7.10
2022-10-26T02:16:27.707Z,7.09
2022-10-26T02:19:45.768Z,7.07
2022-10-26T02:22:53.078Z,7.00
2022-10-26T02:26:01.634Z,7.01
2022-10-26T02:29:12.978Z,6.98
2022-10-26T02:32:18.454Z,7.00
2022-10-26T02:35:30.758Z,7.02
2022-10-26T02:38:36.885Z,6.97
2022-10-26T02:41:44.739Z,6.98
2022-10-26T02:44:54.535Z,6.95
2022-10-26T02:47:59.180Z,6.94
2022-10-26T02:51:12.984Z,6.97
2022-10-26T02:54:25.603Z,6.95
2022-10-26T02:57:39.703Z,6.92
2022-10-26T03:00:45.996Z,6.94
2022-10-26T03:03:50.055Z,6.99
2022-10-26T03:06:56.275Z,6.99
2022-10-26T03:09:59.978Z,6.99
2022-10-26T03:13:03.527Z,7.00
2022-10-26T03:16:07.672Z,7.01
2022-10-26T03:19:11.370Z,7.06
2022-10-26T03:22:16.299Z,7.04
2022-10-26T03:25:19.884Z,7.08
2022-10-26T03:28:23.414Z,7.11
2022-10-26T03:31:27.139Z,7.13
2022-10-26T03:34:30.715Z,7.20
2022-10-26T03:37:35.634Z,7.15
2022-10-26T03:40:39.207Z,7.13
2022-10-26T03:43:42.875Z,7.12
2022-10-26T03:46:46.464Z,7.10
2022-10-26T03:49:50.008Z,7.09
2022-10-26T03:52:54.975Z,7.09
2022-10-26T03:55:58.579Z,7.08
2022-10-26T03:59:02.228Z,7.07
2022-10-26T04:02:05.823Z,7.06
2022-10-26T04:05:11.104Z,7.06
2022-10-26T04:08:16.580Z,7.04
2022-10-26T04:11:20.261Z,7.09
2022-10-26T04:14:24.139Z,7.14
2022-10-26T04:17:27.735Z,7.19
2022-10-26T04:20:33.972Z,7.14
2022-10-26T04:23:38.917Z,7.17
2022-10-26T04:26:42.498Z,7.01
2022-10-26T04:29:46.029Z,6.98
2022-10-26T04:32:50.579Z,6.97
2022-10-26T04:35:54.418Z,6.95
2022-10-26T04:38:59.407Z,6.94
2022-10-26T04:42:02.925Z,6.92
2022-10-26T04:45:07.602Z,6.90
2022-10-26T04:48:14.627Z,6.88
2022-10-26T04:51:18.744Z,6.82
2022-10-26T04:54:23.772Z,6.85
2022-10-26T04:57:27.434Z,6.73
2022-10-26T05:00:33.196Z,6.65
2022-10-26T05:03:36.802Z,6.58
2022-10-26T05:06:40.368Z,6.53
2022-10-26T05:09:45.392Z,6.60
2022-10-26T05:12:53.268Z,6.67
2022-10-26T05:15:56.839Z,6.64
2022-10-26T05:19:00.377Z,6.65
2022-10-26T05:22:04.134Z,6.60
2022-10-26T05:25:10.284Z,6.62
2022-10-26T05:28:15.977Z,6.63
2022-10-26T05:31:19.819Z,6.57
2022-10-26T05:34:23.440Z,6.53
2022-10-26T05:37:30.259Z,6.54
2022-10-26T05:40:35.323Z,6.59
2022-10-26T05:43:38.985Z,6.56
2022-10-26T05:46:42.693Z,6.57
2022-10-26T05:49:46.387Z,6.61
2022-10-26T05:52:51.263Z,6.62
2022-10-26T05:55:57.711Z,6.64
2022-10-26T05:59:02.527Z,6.74
2022-10-26T06:02:20.327Z,6.75
2022-10-26T06:05:30.397Z,6.68
2022-10-26T06:08:34.515Z,6.68
2022-10-26T06:11:40.786Z,6.69
2022-10-26T06:14:45.207Z,6.69
2022-10-26T06:18:04.481Z,6.61
2022-10-26T06:21:32.005Z,6.59
2022-10-26T06:24:47.647Z,6.58
2022-10-26T06:28:06.167Z,6.61
2022-10-26T06:31:09.947Z,6.64
2022-10-26T06:34:24.185Z,6.55
2022-10-26T06:37:30.630Z,6.50
2022-10-26T06:40:37.810Z,6.54
2022-10-26T06:43:43.878Z,6.59
2022-10-26T06:46:54.293Z,6.58
2022-10-26T06:50:08.516Z,6.60
2022-10-26T06:53:27.166Z,6.67
2022-10-26T06:56:32.234Z,6.57
2022-10-26T06:59:44.223Z,6.59
2022-10-26T07:02:49.220Z,6.64
2022-10-26T07:05:53.807Z,6.66
2022-10-26T07:08:57.539Z,6.76
2022-10-26T07:12:01.144Z,6.72
2022-10-26T07:18:13.000Z,6.79
2022-10-26T07:21:16.608Z,7.00
2022-10-26T07:24:20.121Z,6.99
2022-10-26T07:27:24.931Z,7.14
2022-10-26T07:30:31.382Z,7.19
2022-10-26T07:33:38.048Z,7.24
2022-10-26T07:36:45.048Z,7.31
2022-10-26T07:39:48.866Z,7.39
2022-10-26T07:42:52.863Z,7.52
2022-10-26T07:45:58.523Z,7.62
2022-10-26T07:49:02.141Z,7.70
2022-10-26T07:52:06.419Z,7.82
2022-10-26T07:55:11.071Z,7.94
2022-10-26T07:58:14.682Z,7.99
2022-10-26T08:01:19.823Z,8.07
2022-10-26T08:04:23.549Z,8.14
2022-10-26T08:07:28.794Z,8.27
2022-10-26T08:10:32.437Z,8.38
2022-10-26T08:13:36.131Z,8.58
2022-10-26T08:16:41.144Z,8.55
2022-10-26T08:19:44.735Z,8.69
2022-10-26T08:22:48.701Z,8.77
2022-10-26T08:25:52.461Z,8.84
2022-10-26T08:28:56.146Z,9.02
2022-10-26T08:32:01.139Z,9.12
2022-10-26T08:35:05.167Z,9.22
2022-10-26T08:38:08.763Z,9.40
2022-10-26T08:41:14.747Z,9.55
2022-10-26T08:44:28.850Z,9.76
2022-10-26T08:47:45.007Z,9.87
2022-10-26T08:50:54.714Z,9.97
2022-10-26T08:54:05.017Z,10.10
2022-10-26T08:57:20.897Z,10.29
2022-10-26T09:00:27.939Z,10.39
2022-10-26T09:03:33.786Z,10.43
2022-10-26T09:06:54.936Z,10.43
2022-10-26T09:10:17.582Z,10.57
2022-10-26T09:13:34.976Z,10.70
2022-10-26T09:16:51.610Z,10.68
2022-10-26T09:20:17.096Z,10.61
2022-10-26T09:23:38.220Z,10.78
2022-10-26T09:26:55.685Z,10.88
2022-10-26T09:30:05.885Z,11.13
2022-10-26T09:33:18.062Z,11.22
2022-10-26T09:36:24.335Z,11.38
2022-10-26T09:39:41.370Z,11.49
2022-10-26T09:42:51.860Z,11.67
2022-10-26T09:45:55.871Z,11.90
2022-10-26T09:49:05.786Z,12.04
2022-10-26T09:55:15.746Z,12.08
2022-10-26T09:58:26.474Z,12.20
2022-10-26T10:01:35.622Z,12.31
2022-10-26T10:04:48.992Z,12.49
2022-10-26T10:07:54.096Z,12.55
2022-10-26T10:11:04.956Z,12.65
2022-10-26T10:14:15.542Z,12.90
2022-10-26T10:17:24.573Z,12.99
2022-10-26T10:20:34.221Z,13.15
2022-10-26T10:23:52.044Z,13.32
2022-10-26T10:27:05.097Z,13.42
2022-10-26T10:30:24.438Z,13.47
2022-10-26T10:33:37.753Z,13.54
2022-10-26T10:36:42.070Z,13.64
2022-10-26T10:39:48.696Z,13.66
2022-10-26T10:42:56.896Z,13.63
2022-10-26T10:46:01.439Z,13.75
2022-10-26T10:49:17.173Z,13.61
2022-10-26T10:52:28.053Z,13.57
2022-10-26T10:55:33.426Z,13.75
2022-10-26T10:58:51.005Z,13.68
2022-10-26T11:02:22.993Z,13.62
2022-10-26T11:05:51.756Z,13.72
2022-10-26T11:09:03.731Z,13.58
2022-10-26T11:12:16.491Z,13.31
2022-10-26T11:15:24.771Z,13.32
2022-10-26T11:18:36.300Z,13.30
2022-10-26T11:21:39.819Z,13.40
2022-10-26T11:24:51.062Z,13.54
2022-10-26T11:28:03.165Z,13.43
2022-10-26T11:31:18.232Z,13.66
2022-10-26T11:34:30.897Z,13.61
2022-10-26T11:37:45.539Z,13.76
2022-10-26T11:40:58.646Z,13.93
2022-10-26T11:44:16.466Z,14.00
2022-10-26T11:47:27.155Z,14.07
2022-10-26T11:50:38.762Z,14.26
2022-10-26T11:53:48.561Z,14.39
2022-10-26T11:56:57.014Z,14.30
2022-10-26T12:00:06.599Z,14.32
2022-10-26T12:03:18.092Z,14.28
2022-10-26T12:06:28.476Z,14.51
2022-10-26T12:09:38.160Z,14.51
2022-10-26T12:12:51.726Z,14.80
2022-10-26T12:16:08.382Z,15.09
2022-10-26T12:19:22.214Z,14.95
2022-10-26T12:22:33.637Z,15.12
2022-10-26T12:25:37.428Z,14.95
2022-10-26T12:28:43.016Z,15.01
2022-10-26T12:31:47.939Z,15.17
2022-10-26T12:35:35.083Z,15.10
2022-10-26T12:39:00.197Z,15.08
2022-10-26T12:42:30.208Z,15.28
2022-10-26T12:45:34.028Z,15.44
2022-10-26T12:48:45.304Z,15.59
2022-10-26T12:51:50.134Z,15.49
2022-10-26T12:56:02.692Z,15.63
2022-10-26T12:59:27.043Z,15.73
2022-10-26T13:02:56.079Z,15.57
2022-10-26T13:06:38.159Z,15.40
2022-10-26T13:09:47.475Z,15.21
2022-10-26T13:12:55.867Z,15.19
2022-10-26T13:16:01.643Z,15.15
2022-10-26T13:19:05.327Z,15.13
2022-10-26T13:22:17.282Z,15.28
2022-10-26T13:25:27.504Z,15.37
2022-10-26T13:28:47.626Z,15.62
2022-10-26T13:31:58.987Z,15.89
2022-10-26T13:35:04.875Z,15.82
2022-10-26T13:38:14.007Z,16.05
2022-10-26T13:41:32.803Z,16.21
2022-10-26T13:44:45.860Z,16.10
2022-10-26T13:48:00.001Z,15.98
2022-10-26T13:51:13.433Z,16.02
2022-10-26T13:54:28.236Z,16.09
2022-10-26T13:57:39.257Z,15.94
2022-10-26T14:01:01.446Z,16.02
2022-10-26T14:04:18.117Z,15.93
2022-10-26T14:07:30.941Z,15.91
2022-10-26T14:10:43.414Z,15.81
2022-10-26T14:13:49.862Z,15.82
2022-10-26T14:16:55.439Z,15.80
2022-10-26T14:19:59.363Z,15.73
2022-10-26T14:23:02.942Z,15.73
2022-10-26T14:26:08.057Z,15.67
2022-10-26T14:29:18.928Z,15.52
2022-10-26T14:32:27.365Z,15.81
2022-10-26T14:35:36.107Z,15.75
2022-10-26T14:38:47.666Z,15.73
2022-10-26T14:41:55.682Z,15.70
2022-10-26T14:45:00.339Z,15.69
2022-10-26T14:48:07.267Z,15.71
2022-10-26T14:51:17.933Z,15.71
2022-10-26T14:54:24.943Z,15.69
2022-10-26T14:57:35.962Z,15.55
2022-10-26T15:00:40.450Z,15.55
2022-10-26T15:03:45.252Z,15.49
2022-10-26T15:06:49.002Z,15.48
2022-10-26T15:09:53.647Z,15.55
2022-10-26T15:12:58.790Z,15.52
2022-10-26T15:16:17.580Z,15.42
2022-10-26T15:19:24.181Z,15.23
2022-10-26T15:22:32.239Z,15.21
2022-10-26T15:25:36.331Z,15.21
2022-10-26T15:28:43.675Z,15.16
2022-10-26T15:31:47.347Z,15.03
2022-10-26T15:35:06.512Z,14.94
2022-10-26T15:38:13.005Z,14.84
2022-10-26T15:41:23.210Z,14.68
2022-10-26T15:44:28.202Z,14.56
2022-10-26T15:47:35.249Z,14.55
2022-10-26T15:50:41.250Z,14.49
2022-10-26T15:53:45.255Z,14.37
2022-10-26T15:56:49.183Z,14.24
2022-10-26T15:59:54.109Z,14.00
2022-10-26T16:02:57.990Z,13.87
2022-10-26T16:06:03.770Z,13.80
2022-10-26T16:09:14.172Z,13.65
2022-10-26T16:12:17.720Z,13.61
2022-10-26T16:15:39.215Z,13.47
2022-10-26T16:18:43.681Z,13.37
2022-10-26T16:21:47.307Z,13.32
2022-10-26T16:24:50.855Z,13.38
2022-10-26T16:27:56.448Z,13.24
2022-10-26T16:31:06.814Z,13.14
2022-10-26T16:34:10.394Z,13.06
2022-10-26T16:37:13.951Z,12.93
2022-10-26T16:40:17.763Z,12.86
2022-10-26T16:43:21.540Z,12.80
2022-10-26T16:46:26.703Z,12.68
2022-10-26T16:49:30.339Z,12.65
2022-10-26T16:52:36.207Z,12.62
2022-10-26T16:55:39.958Z,12.51
2022-10-26T16:58:43.973Z,12.50
2022-10-26T17:01:48.969Z,12.39
2022-10-26T17:04:52.880Z,12.35
2022-10-26T17:07:56.670Z,12.25
2022-10-26T17:11:05.643Z,12.23
2022-10-26T17:14:09.387Z,12.15
2022-10-26T17:17:14.438Z,12.08
2022-10-26T17:20:18.406Z,12.00
2022-10-26T17:23:22.095Z,11.95
2022-10-26T17:26:25.776Z,11.93
2022-10-26T17:29:29.730Z,11.88
2022-10-26T17:32:34.728Z,11.82
2022-10-26T17:35:38.870Z,11.76
2022-10-26T17:38:44.666Z,11.69
2022-10-26T17:41:48.451Z,11.66
2022-10-26T17:44:52.470Z,11.64
2022-10-26T17:47:57.538Z,11.58
2022-10-26T17:51:02.301Z,11.50
2022-10-26T17:54:06.478Z,11.44
2022-10-26T17:57:10.297Z,11.38
2022-10-26T18:00:15.546Z,11.35
2022-10-26T18:03:21.081Z,11.31
2022-10-26T18:06:25.915Z,11.30
2022-10-26T18:09:29.703Z,11.26
2022-10-26T18:12:33.633Z,11.26
2022-10-26T18:15:37.443Z,11.27
2022-10-26T18:18:46.455Z,11.28
2022-10-26T18:21:50.093Z,11.31
2022-10-26T18:24:53.654Z,11.30
2022-10-26T18:27:58.327Z,11.27
2022-10-26T18:31:05.067Z,11.26
2022-10-26T18:34:12.308Z,11.23
2022-10-26T18:37:16.899Z,11.26
2022-10-26T18:40:20.590Z,11.30
2022-10-26T18:43:24.305Z,11.25
2022-10-26T18:46:30.579Z,11.30
2022-10-26T18:49:35.633Z,11.26
2022-10-26T18:52:39.311Z,11.21
2022-10-26T18:55:44.108Z,11.21
2022-10-26T18:58:50.686Z,11.20
2022-10-26T19:01:54.605Z,11.14
2022-10-26T19:04:59.807Z,11.10
2022-10-26T19:08:03.394Z,11.05
2022-10-26T19:11:09.651Z,10.99
2022-10-26T19:14:13.884Z,10.92
2022-10-26T19:17:17.472Z,10.86
2022-10-26T19:20:22.498Z,10.85
2022-10-26T19:23:26.439Z,10.79
2022-10-26T19:26:36.049Z,10.76
2022-10-26T19:29:42.410Z,10.74
2022-10-26T19:32:46.004Z,10.69
2022-10-26T19:35:52.017Z,10.64
2022-10-26T19:38:55.956Z,10.59
2022-10-26T19:41:59.708Z,10.56
2022-10-26T19:45:03.668Z,10.47
2022-10-26T19:48:08.407Z,10.46
2022-10-26T19:51:13.776Z,10.45
2022-10-26T19:54:17.513Z,10.44
2022-10-26T19:57:21.048Z,10.38
2022-10-26T20:00:24.868Z,10.34
2022-10-26T20:03:29.709Z,10.31
2022-10-26T20:06:35.031Z,10.30
2022-10-26T20:09:38.611Z,10.30
2022-10-26T20:12:42.795Z,10.31
2022-10-26T20:15:46.631Z,10.26
2022-10-26T20:18:50.258Z,10.25
2022-10-26T20:21:55.130Z,10.28
2022-10-26T20:25:00.037Z,10.26
2022-10-26T20:28:04.735Z,10.29
2022-10-26T20:31:08.437Z,10.28
2022-10-26T20:34:12.112Z,10.37
2022-10-26T20:37:17.959Z,10.61
2022-10-26T20:40:24.010Z,10.72
2022-10-26T20:43:29.157Z,10.79
2022-10-26T20:46:33.642Z,10.83
2022-10-26T20:49:38.391Z,10.92
2022-10-26T20:52:56.527Z,10.91
2022-10-26T20:56:04.595Z,11.04
2022-10-26T20:59:17.991Z,11.05
2022-10-26T21:02:22.515Z,11.06
2022-10-26T21:05:30.223Z,11.08
2022-10-26T21:08:37.579Z,11.07
2022-10-26T21:11:41.432Z,11.07
2022-10-26T21:14:45.050Z,11.22
2022-10-26T21:17:49.124Z,11.21
2022-10-26T21:20:52.880Z,11.16
2022-10-26T21:23:57.965Z,11.13
2022-10-26T21:27:01.512Z,11.18
2022-10-26T21:30:06.677Z,11.24
2022-10-26T21:33:10.171Z,11.21
2022-10-26T21:36:15.393Z,11.23
2022-10-26T21:39:20.330Z,11.24
2022-10-26T21:42:24.305Z,11.35
2022-10-26T21:45:27.852Z,11.46
2022-10-26T21:48:33.103Z,11.52
2022-10-26T21:51:36.888Z,11.68
2022-10-26T21:54:41.806Z,11.65
2022-10-26T21:57:45.336Z,11.64
2022-10-26T22:00:49.128Z,11.60
2022-10-26T22:03:52.681Z,11.73
2022-10-26T22:06:59.085Z,11.72
2022-10-26T22:10:11.685Z,11.66
2022-10-26T22:13:15.549Z,11.61
2022-10-26T22:16:22.647Z,11.66
2022-10-26T22:19:26.199Z,11.59
2022-10-26T22:22:29.731Z,11.64
2022-10-26T22:25:34.824Z,11.67
2022-10-26T22:28:42.682Z,11.73
2022-10-26T22:31:46.673Z,11.70
2022-10-26T22:34:53.184Z,11.60
2022-10-26T22:38:04.009Z,11.73
2022-10-26T22:41:12.458Z,11.70
2022-10-26T22:44:16.127Z,11.72
2022-10-26T22:47:19.704Z,11.63
2022-10-26T22:50:23.286Z,11.61
2022-10-26T22:53:27.021Z,11.61
2022-10-26T22:56:34.892Z,11.73
2022-10-26T22:59:38.452Z,11.60
2022-10-26T23:02:42.278Z,11.53
2022-10-26T23:05:49.355Z,11.44
2022-10-26T23:08:53.091Z,11.59
2022-10-26T23:11:58.218Z,11.56
2022-10-26T23:15:01.838Z,11.60
2022-10-26T23:18:05.487Z,11.49
2022-10-26T23:21:12.216Z,11.43
2022-10-26T23:24:15.779Z,11.44
2022-10-26T23:27:20.759Z,11.41
2022-10-26T23:30:24.308Z,11.42
2022-10-26T23:33:28.054Z,11.48
2022-10-26T23:36:31.589Z,11.46
2022-10-26T23:39:35.448Z,11.49
2022-10-26T23:42:40.390Z,11.56
2022-10-26T23:45:43.991Z,11.41
2022-10-26T23:48:47.508Z,11.48
2022-10-26T23:51:51.095Z,11.41
2022-10-26T23:54:54.610Z,11.34
2022-10-26T23:57:59.814Z,11.33
